Time;durP1;ratioP1;P1;durP2;ratioP2;P2;SDS_P1;SDS_P2;PMS_P1;PMS_P2;Temp;Humidity;BMP_temperature;BMP_pressure;BME280_temperature;BME280_humidity;BME280_pressure;Samples;Min_cycle;Max_cycle;Signal;HPM_P1;HPM_P2
2022/10/23 00:01:35;;;;;;;3.55;1.70;;;17.80;99.90;;;;;;5011638;28;20014;-85
2022/10/23 00:04:03;;;;;;;4.22;2.38;;;17.80;99.90;;;;;;5011234;28;20112;-85
2022/10/23 00:06:30;;;;;;;2.50;1.73;;;17.80;99.90;;;;;;5011015;28;20026;-85
2022/10/23 00:08:56;;;;;;;6.72;1.73;;;17.90;99.90;;;;;;5011313;28;20021;-84
2022/10/23 00:11:25;;;;;;;2.05;1.67;;;17.90;99.90;;;;;;5011462;28;20484;-85
2022/10/23 00:13:54;;;;;;;3.70;1.70;;;17.90;99.90;;;;;;5026589;28;20116;-85
2022/10/23 00:16:20;;;;;;;3.17;1.88;;;17.90;99.90;;;;;;5010939;28;20484;-85
2022/10/23 00:18:46;;;;;;;3.35;2.10;;;17.80;99.90;;;;;;5011511;28;20026;-86
2022/10/23 00:21:14;;;;;;;3.70;1.88;;;17.90;99.90;;;;;;5026247;28;20022;-85
2022/10/23 00:23:39;;;;;;;2.47;1.70;;;17.90;99.90;;;;;;5025743;28;20037;-85
2022/10/23 00:26:06;;;;;;;2.92;1.70;;;17.80;99.90;;;;;;5010888;28;20045;-85
2022/10/23 00:28:33;;;;;;;4.53;2.28;;;17.90;99.90;;;;;;5010555;28;20148;-85
2022/10/23 00:31:02;;;;;;;2.40;1.45;;;17.90;99.90;;;;;;5010891;28;20121;-85
2022/10/23 00:33:27;;;;;;;3.65;1.85;;;18.00;99.90;;;;;;5011110;28;20037;-84
2022/10/23 00:35:53;;;;;;;3.40;2.00;;;17.90;99.90;;;;;;5025978;28;20026;-85
2022/10/23 00:38:19;;;;;;;2.30;2.10;;;17.90;99.90;;;;;;5010956;28;20026;-85
2022/10/23 00:40:45;;;;;;;4.22;1.88;;;17.90;99.90;;;;;;5010992;28;20475;-86
2022/10/23 00:43:23;;;;;;;2.70;1.50;;;17.80;99.90;;;;;;5011032;28;20022;-86
2022/10/23 00:45:48;;;;;;;1.73;1.40;;;17.70;99.90;;;;;;5011215;28;20045;-85
2022/10/23 00:48:15;;;;;;;3.47;1.88;;;17.60;99.90;;;;;;5010781;28;20092;-85
2022/10/23 00:50:41;;;;;;;4.40;1.83;;;17.60;99.90;;;;;;5011151;28;20026;-86
2022/10/23 00:53:10;;;;;;;6.03;1.90;;;17.40;99.90;;;;;;5010650;28;20033;-85
2022/10/23 00:55:37;;;;;;;3.75;2.35;;;17.50;99.90;;;;;;5010534;28;20053;-86
2022/10/23 00:58:04;;;;;;;2.72;1.65;;;17.60;99.90;;;;;;5010705;28;20053;-85
2022/10/23 01:00:51;;;;;;;2.35;1.20;;;17.70;99.90;;;;;;5010769;28;20030;-86
2022/10/23 01:03:19;;;;;;;4.75;1.85;;;17.70;99.90;;;;;;5009117;28;20029;-86
2022/10/23 01:05:49;;;;;;;2.35;1.55;;;17.80;99.90;;;;;;5012859;28;20042;-86
2022/10/23 01:08:31;;;;;;;3.27;2.10;;;17.80;99.90;;;;;;5025424;28;20503;-86
2022/10/23 01:11:52;;;;;;;5.85;2.00;;;17.90;99.90;;;;;;5010449;28;20018;-86
2022/10/23 01:14:51;;;;;;;2.72;1.80;;;17.90;99.90;;;;;;4969027;28;20045;-85
2022/10/23 01:17:37;;;;;;;1.63;1.50;;;18.00;99.90;;;;;;4969032;28;20037;-85
2022/10/23 01:20:40;;;;;;;2.00;1.33;;;18.00;99.90;;;;;;4969488;28;20074;-85
2022/10/23 01:23:30;;;;;;;1.77;1.67;;;17.90;99.90;;;;;;4968582;28;20065;-85
2022/10/23 01:26:26;;;;;;;2.85;1.52;;;17.80;99.90;;;;;;4969200;28;20109;-85
2022/10/23 01:29:03;;;;;;;3.50;2.30;;;17.90;99.90;;;;;;4969072;28;20039;-86
2022/10/23 01:32:03;;;;;;;1.92;1.67;;;17.80;99.90;;;;;;4969115;28;20042;-85
2022/10/23 01:34:56;;;;;;;3.78;1.70;;;17.80;99.90;;;;;;4969124;28;20085;-85
2022/10/23 01:37:37;;;;;;;3.15;1.48;;;17.70;99.90;;;;;;4962283;28;20058;-85
2022/10/23 01:40:04;;;;;;;;;;;17.70;99.90;;;;;;4973217;28;20105;-85
2022/10/23 01:42:48;;;;;;;2.10;1.77;;;17.70;99.90;;;;;;4972103;28;19957;-85
2022/10/23 01:45:41;;;;;;;3.20;2.17;;;17.60;99.90;;;;;;4972291;28;20035;-85
2022/10/23 01:48:10;;;;;;;2.00;1.85;;;17.60;99.90;;;;;;4995360;28;20030;-86
2022/10/23 01:50:38;;;;;;;1.63;1.48;;;17.80;99.90;;;;;;5025814;28;20037;-85
2022/10/23 01:53:04;;;;;;;2.65;1.50;;;17.80;99.90;;;;;;5013836;28;20022;-85
2022/10/23 01:55:32;;;;;;;3.33;1.80;;;17.80;99.90;;;;;;5013580;28;20566;-85
2022/10/23 01:58:01;;;;;;;3.42;1.70;;;17.90;99.90;;;;;;5013609;28;20033;-86
2022/10/23 02:00:27;;;;;;;1.80;1.23;;;18.00;99.90;;;;;;5013832;28;20029;-84
2022/10/23 02:02:54;;;;;;;3.63;1.63;;;17.90;99.90;;;;;;5013116;28;20022;-85
2022/10/23 02:05:24;;;;;;;3.55;1.60;;;18.00;99.90;;;;;;5027688;28;20056;-85
2022/10/23 02:07:51;;;;;;;2.85;1.85;;;17.90;99.90;;;;;;5013245;28;20060;-85
2022/10/23 02:10:18;;;;;;;2.83;1.70;;;17.90;99.90;;;;;;5013482;28;20109;-85
2022/10/23 02:13:02;;;;;;;2.47;1.75;;;18.00;99.90;;;;;;5028488;28;20030;-85
2022/10/23 02:15:57;;;;;;;2.15;1.80;;;18.00;99.90;;;;;;5006601;28;20551;-85
2022/10/23 02:18:39;;;;;;;2.22;1.70;;;18.00;99.90;;;;;;4971635;28;20038;-85
2022/10/23 02:21:15;;;;;;;4.82;2.15;;;18.00;99.90;;;;;;4971362;28;20189;-85
2022/10/23 02:23:55;;;;;;;2.72;1.90;;;18.00;99.90;;;;;;4971579;28;20031;-85
2022/10/23 02:26:23;;;;;;;3.45;2.15;;;18.00;99.90;;;;;;4967301;28;20126;-85
2022/10/23 02:28:54;;;;;;;3.13;1.55;;;18.10;99.90;;;;;;4971681;28;20509;-86
2022/10/23 02:31:20;;;;;;;;;;;18.10;99.90;;;;;;4971849;28;20173;-85
2022/10/23 02:33:47;;;;;;;2.90;1.90;;;18.00;99.90;;;;;;4971645;28;19928;-86
2022/10/23 02:36:14;;;;;;;4.95;2.03;;;18.00;99.90;;;;;;4971423;28;20724;-85
2022/10/23 02:38:42;;;;;;;5.22;1.85;;;18.00;99.90;;;;;;4971787;28;20042;-86
2022/10/23 02:41:33;;;;;;;2.40;1.55;;;17.90;99.90;;;;;;4971089;28;20019;-86
2022/10/23 02:44:19;;;;;;;2.83;1.85;;;17.90;99.90;;;;;;4955387;28;20034;-86
2022/10/23 02:46:49;;;;;;;4.25;2.05;;;17.90;99.90;;;;;;4958177;28;20037;-85
2022/10/23 02:49:39;;;;;;;5.57;2.27;;;17.80;99.90;;;;;;4951891;28;20032;-86
2022/10/23 02:52:28;;;;;;;2.70;1.80;;;17.90;99.90;;;;;;4955310;28;20023;-86
2022/10/23 02:55:12;;;;;;;2.88;1.77;;;17.90;99.90;;;;;;4974806;28;20503;-86
2022/10/23 02:57:43;;;;;;;3.45;1.83;;;17.80;99.90;;;;;;5012448;28;20026;-86
2022/10/23 03:00:15;;;;;;;4.65;2.28;;;17.90;99.90;;;;;;5012788;28;20122;-86
2022/10/23 03:02:44;;;;;;;3.92;1.98;;;17.90;99.90;;;;;;5012347;28;20026;-86
2022/10/23 03:05:13;;;;;;;2.25;1.80;;;17.90;99.90;;;;;;5012553;28;20080;-86
2022/10/23 03:07:40;;;;;;;3.50;2.03;;;17.90;99.90;;;;;;5012117;28;20070;-85
2022/10/23 03:10:07;;;;;;;3.40;2.30;;;17.90;99.90;;;;;;5012430;28;20037;-85
2022/10/23 03:12:33;;;;;;;3.17;1.90;;;17.80;99.90;;;;;;5011849;28;20026;-85
2022/10/23 03:14:59;;;;;;;4.18;1.88;;;17.70;99.90;;;;;;5007153;28;20114;-85
2022/10/23 03:17:24;;;;;;;3.42;1.70;;;17.60;99.90;;;;;;5009472;28;20087;-86
2022/10/23 03:19:50;;;;;;;2.63;1.77;;;17.70;99.90;;;;;;5027271;28;20099;-86
2022/10/23 03:22:16;;;;;;;2.42;1.70;;;17.60;99.90;;;;;;5012403;28;20026;-86
2022/10/23 03:24:42;;;;;;;3.20;2.03;;;17.70;99.90;;;;;;5012591;28;20069;-85
2022/10/23 03:27:10;;;;;;;3.38;2.10;;;17.60;99.90;;;;;;5011590;28;20026;-86
2022/10/23 03:29:36;;;;;;;3.88;1.80;;;17.80;99.90;;;;;;5012071;28;20041;-86
2022/10/23 03:32:02;;;;;;;3.38;2.38;;;17.70;99.90;;;;;;5011770;28;20106;-86
2022/10/23 03:34:27;;;;;;;2.92;1.92;;;17.70;99.90;;;;;;5011791;28;20200;-86
2022/10/23 03:36:53;;;;;;;5.28;2.42;;;17.80;99.90;;;;;;5026983;28;20431;-86
2022/10/23 03:39:18;;;;;;;2.92;2.05;;;17.70;99.90;;;;;;5011650;28;20386;-86
2022/10/23 03:41:44;;;;;;;3.83;2.38;;;17.80;99.90;;;;;;5011667;28;20022;-86
2022/10/23 03:44:10;;;;;;;3.72;2.08;;;17.70;99.90;;;;;;5011763;28;20026;-86
2022/10/23 03:46:35;;;;;;;4.05;2.13;;;17.80;99.90;;;;;;5011521;28;20022;-86
2022/10/23 03:49:01;;;;;;;5.53;2.33;;;17.80;99.90;;;;;;5011994;28;20372;-86
2022/10/23 03:51:27;;;;;;;5.03;3.22;;;17.70;99.90;;;;;;5011224;28;20407;-87
2022/10/23 03:53:53;;;;;;;2.85;2.00;;;17.80;99.90;;;;;;5011606;28;20036;-87
2022/10/23 03:56:19;;;;;;;4.18;2.10;;;17.70;99.90;;;;;;5011021;28;20079;-86
2022/10/23 03:58:44;;;;;;;2.00;1.75;;;17.70;99.90;;;;;;5024627;28;20022;-86
2022/10/23 04:01:10;;;;;;;4.40;2.20;;;17.70;99.90;;;;;;5009818;28;20566;-85
2022/10/23 04:03:36;;;;;;;2.60;1.80;;;17.70;99.90;;;;;;5026161;28;20053;-85
2022/10/23 04:06:01;;;;;;;2.10;1.90;;;17.80;99.90;;;;;;5011344;28;20022;-86
2022/10/23 04:08:27;;;;;;;4.40;2.20;;;17.80;99.90;;;;;;5011304;28;20494;-86
2022/10/23 04:10:54;;;;;;;3.78;1.88;;;17.80;99.90;;;;;;5011098;28;20022;-86
2022/10/23 04:13:19;;;;;;;2.97;1.90;;;17.90;99.90;;;;;;5025876;28;20026;-86
2022/10/23 04:15:49;;;;;;;4.13;2.20;;;17.90;99.90;;;;;;5009306;28;20032;-86
2022/10/23 04:18:15;;;;;;;4.68;2.28;;;17.90;99.90;;;;;;5026338;28;20026;-85
2022/10/23 04:20:40;;;;;;;3.67;2.10;;;17.90;99.90;;;;;;5011344;28;20056;-84
2022/10/23 04:23:06;;;;;;;6.05;2.20;;;17.90;99.90;;;;;;5010753;28;20392;-84
2022/10/23 04:25:32;;;;;;;3.75;2.05;;;18.00;99.90;;;;;;5026257;28;20135;-84
2022/10/23 04:27:57;;;;;;;4.22;2.25;;;18.10;99.90;;;;;;5010491;28;20025;-84
2022/10/23 04:30:23;;;;;;;3.70;1.80;;;18.00;99.90;;;;;;5010622;28;20406;-83
2022/10/23 04:32:50;;;;;;;3.13;1.88;;;18.00;99.90;;;;;;5011104;28;20033;-84
2022/10/23 04:35:16;;;;;;;5.68;2.20;;;18.00;99.90;;;;;;5010316;28;20030;-83
2022/10/23 04:37:42;;;;;;;4.78;2.28;;;18.10;99.90;;;;;;5010742;28;20195;-83
2022/10/23 04:40:08;;;;;;;2.63;1.95;;;18.10;99.90;;;;;;5010550;28;20034;-83
2022/10/23 04:42:34;;;;;;;3.63;2.20;;;18.10;99.90;;;;;;5010268;28;20101;-83
2022/10/23 04:45:00;;;;;;;2.28;1.88;;;18.10;99.90;;;;;;5025376;28;20135;-83
2022/10/23 04:47:25;;;;;;;4.15;2.35;;;18.20;99.90;;;;;;5010586;28;20049;-83
2022/10/23 04:49:51;;;;;;;6.97;2.63;;;18.20;99.90;;;;;;5021539;28;20411;-83
2022/10/23 04:52:17;;;;;;;3.55;2.10;;;18.10;99.90;;;;;;5010739;28;20088;-83
2022/10/23 04:54:42;;;;;;;4.15;1.90;;;18.10;99.90;;;;;;5026229;28;20026;-83
2022/10/23 04:57:08;;;;;;;3.30;2.10;;;18.00;99.90;;;;;;5011301;28;20434;-82
2022/10/23 04:59:34;;;;;;;2.70;1.60;;;18.00;99.90;;;;;;5010664;28;20399;-83
2022/10/23 05:02:00;;;;;;;7.00;2.00;;;18.10;99.90;;;;;;5009895;28;20034;-83
2022/10/23 05:04:25;;;;;;;5.20;2.28;;;18.00;99.90;;;;;;5011223;28;20033;-83
2022/10/23 05:06:51;;;;;;;3.72;1.92;;;18.10;99.90;;;;;;5009547;28;20080;-83
2022/10/23 05:09:17;;;;;;;2.80;1.80;;;18.20;99.90;;;;;;5008641;28;20487;-83
2022/10/23 05:11:42;;;;;;;4.88;1.90;;;18.20;99.90;;;;;;5014473;28;20518;-84
2022/10/23 05:14:08;;;;;;;3.22;2.08;;;18.30;99.90;;;;;;5013854;28;20034;-86
2022/10/23 05:16:49;;;;;;;6.45;2.65;;;18.40;99.90;;;;;;5014114;28;20061;-84
2022/10/23 05:19:22;;;;;;;5.37;2.33;;;18.40;99.90;;;;;;5015309;28;20065;-84
2022/10/23 05:21:54;;;;;;;7.07;2.30;;;18.50;99.90;;;;;;5015440;28;20773;-85
2022/10/23 05:24:20;;;;;;;4.82;2.55;;;18.50;99.90;;;;;;5014438;28;20049;-85
2022/10/23 05:26:46;;;;;;;3.60;2.30;;;18.50;99.90;;;;;;5030664;28;20022;-85
2022/10/23 05:29:12;;;;;;;4.28;1.90;;;18.40;99.90;;;;;;5014281;28;20522;-85
2022/10/23 05:31:38;;;;;;;5.88;2.33;;;18.30;99.90;;;;;;5008291;28;20025;-86
2022/10/23 05:34:05;;;;;;;3.30;1.98;;;18.20;99.90;;;;;;5014848;28;20022;-85
2022/10/23 05:36:31;;;;;;;4.90;2.30;;;18.20;99.90;;;;;;5030567;28;20044;-86
2022/10/23 05:38:57;;;;;;;6.15;2.10;;;18.20;99.90;;;;;;5030411;28;20128;-86
2022/10/23 05:41:23;;;;;;;3.85;2.20;;;18.20;99.90;;;;;;5030194;28;20056;-85
2022/10/23 05:43:49;;;;;;;2.03;1.48;;;18.20;99.90;;;;;;5014921;28;20075;-85
2022/10/23 05:46:15;;;;;;;3.13;1.90;;;18.10;99.90;;;;;;5015466;28;20105;-86
2022/10/23 05:48:40;;;;;;;3.25;1.85;;;18.20;99.90;;;;;;5015448;28;20034;-85
2022/10/23 05:51:09;;;;;;;2.97;2.22;;;18.20;99.90;;;;;;5030136;28;20455;-86
2022/10/23 05:53:34;;;;;;;3.63;2.00;;;18.30;99.90;;;;;;5013756;28;20022;-85
2022/10/23 05:56:07;;;;;;;4.47;1.98;;;18.30;99.90;;;;;;5015031;28;20527;-86
2022/10/23 05:58:33;;;;;;;3.08;2.10;;;18.30;99.90;;;;;;5014753;28;20026;-85
2022/10/23 06:01:03;;;;;;;3.88;2.50;;;18.40;99.90;;;;;;5029769;28;20567;-85
2022/10/23 06:03:29;;;;;;;7.40;2.50;;;18.40;99.90;;;;;;5021844;28;20046;-86
2022/10/23 06:05:54;;;;;;;6.07;2.38;;;18.40;99.90;;;;;;5015092;28;20053;-85
2022/10/23 06:08:20;;;;;;;4.22;1.90;;;18.40;99.90;;;;;;5014770;28;20033;-86
2022/10/23 06:10:46;;;;;;;5.15;2.17;;;18.40;99.90;;;;;;5014976;28;20476;-85
2022/10/23 06:13:11;;;;;;;3.13;2.05;;;18.40;99.90;;;;;;5014515;28;20018;-86
2022/10/23 06:15:37;;;;;;;3.72;2.08;;;18.40;99.90;;;;;;5014720;28;20496;-85
2022/10/23 06:18:04;;;;;;;4.68;2.25;;;18.30;99.90;;;;;;5013419;28;20034;-86
2022/10/23 06:20:30;;;;;;;4.75;3.00;;;18.30;99.90;;;;;;5014613;28;20550;-86
2022/10/23 06:22:55;;;;;;;5.35;2.45;;;18.40;99.90;;;;;;5013947;28;20037;-85
2022/10/23 06:25:21;;;;;;;4.05;2.70;;;18.40;99.90;;;;;;5014388;28;20046;-86
2022/10/23 06:27:47;;;;;;;5.28;2.20;;;18.40;99.90;;;;;;5014672;28;20026;-86
2022/10/23 06:30:12;;;;;;;5.82;2.47;;;18.40;99.90;;;;;;5014037;28;20400;-86
2022/10/23 06:32:38;;;;;;;4.85;2.28;;;18.30;99.90;;;;;;5008413;28;20103;-85
2022/10/23 06:35:04;;;;;;;4.88;2.35;;;18.40;99.90;;;;;;5029507;28;20526;-85
2022/10/23 06:37:33;;;;;;;4.50;2.08;;;18.50;99.90;;;;;;5014509;28;20026;-85
2022/10/23 06:39:58;;;;;;;7.40;2.33;;;18.60;99.90;;;;;;5012801;28;20037;-86
2022/10/23 06:42:24;;;;;;;4.40;2.13;;;18.50;99.90;;;;;;5013977;28;20025;-85
2022/10/23 06:44:50;;;;;;;3.75;2.03;;;18.50;99.90;;;;;;5014172;28;20030;-85
2022/10/23 06:47:16;;;;;;;6.43;2.95;;;18.50;99.90;;;;;;5013011;28;20037;-86
2022/10/23 06:49:42;;;;;;;5.63;2.78;;;18.60;99.90;;;;;;5017073;28;20040;-86
2022/10/23 06:52:07;;;;;;;5.22;2.70;;;18.50;99.90;;;;;;5014342;28;20084;-86
2022/10/23 06:54:33;;;;;;;6.78;2.55;;;18.60;99.90;;;;;;5014224;28;20037;-86
2022/10/23 06:56:59;;;;;;;4.38;2.60;;;18.60;99.90;;;;;;5013978;28;20429;-85
2022/10/23 06:59:24;;;;;;;6.63;3.10;;;18.60;99.90;;;;;;5012423;28;20558;-86
2022/10/23 07:01:50;;;;;;;7.45;2.97;;;18.60;99.90;;;;;;5012747;28;20083;-85
2022/10/23 07:04:16;;;;;;;5.68;2.75;;;18.60;99.90;;;;;;5012488;28;20403;-86
2022/10/23 07:06:42;;;;;;;6.50;2.47;;;18.70;99.90;;;;;;5013741;28;20495;-86
2022/10/23 07:09:08;;;;;;;4.72;2.40;;;18.70;99.90;;;;;;5028930;28;20033;-86
2022/10/23 07:11:34;;;;;;;5.80;3.25;;;18.70;99.90;;;;;;5013337;28;20080;-86
2022/10/23 07:14:00;;;;;;;3.45;2.60;;;18.70;99.90;;;;;;5028467;28;20500;-85
2022/10/23 07:16:26;;;;;;;6.38;2.72;;;18.70;99.90;;;;;;5013669;28;20029;-86
2022/10/23 07:18:58;;;;;;;7.22;2.38;;;18.80;99.90;;;;;;5012170;28;20483;-86
2022/10/23 07:21:28;;;;;;;4.68;2.42;;;18.80;99.90;;;;;;5012147;28;20068;-86
2022/10/23 07:23:54;;;;;;;5.47;2.45;;;18.80;99.90;;;;;;5028770;28;20029;-86
2022/10/23 07:26:20;;;;;;;5.75;2.20;;;18.80;99.90;;;;;;5013224;28;20685;-86
2022/10/23 07:28:47;;;;;;;5.78;2.50;;;18.80;99.90;;;;;;5013135;28;20030;-86
2022/10/23 07:31:13;;;;;;;4.43;2.30;;;18.90;99.90;;;;;;5011831;28;20045;-86
2022/10/23 07:33:39;;;;;;;5.25;2.42;;;18.90;99.90;;;;;;5028558;28;20487;-86
2022/10/23 07:36:07;;;;;;;3.83;1.90;;;18.90;99.90;;;;;;5013348;28;20045;-86
2022/10/23 07:38:33;;;;;;;6.90;2.13;;;18.90;99.90;;;;;;5013206;28;20022;-86
2022/10/23 07:40:59;;;;;;;5.28;2.55;;;18.90;99.90;;;;;;5013089;28;20033;-86
2022/10/23 07:43:25;;;;;;;5.18;2.13;;;18.90;99.90;;;;;;5028386;28;20033;-87
2022/10/23 07:45:52;;;;;;;5.72;2.40;;;18.90;99.90;;;;;;5028080;28;20022;-86
2022/10/23 07:48:18;;;;;;;5.40;2.58;;;19.00;99.90;;;;;;5013188;28;20060;-86
2022/10/23 07:50:44;;;;;;;4.05;2.47;;;19.10;99.90;;;;;;5013199;28;20030;-87
2022/10/23 07:53:21;;;;;;;4.90;2.20;;;19.20;99.90;;;;;;5013012;28;20018;-87
2022/10/23 07:55:52;;;;;;;4.63;2.53;;;19.20;99.90;;;;;;5013022;28;20032;-86
2022/10/23 07:58:18;;;;;;;4.18;2.17;;;19.10;99.90;;;;;;5011519;28;20018;-86
2022/10/23 08:00:44;;;;;;;4.95;2.28;;;19.30;99.90;;;;;;5011305;28;20141;-86
2022/10/23 08:03:11;;;;;;;3.67;2.20;;;19.30;99.90;;;;;;5012695;28;20061;-86
2022/10/23 08:05:37;;;;;;;4.55;2.20;;;19.30;99.90;;;;;;5012602;28;20033;-86
2022/10/23 08:08:03;;;;;;;3.90;1.90;;;19.40;99.90;;;;;;5012870;28;20030;-87
2022/10/23 08:10:29;;;;;;;6.35;2.28;;;19.40;99.90;;;;;;5012567;28;20030;-87
2022/10/23 08:12:55;;;;;;;8.18;2.75;;;19.40;99.90;;;;;;5012702;28;20410;-87
2022/10/23 08:15:20;;;;;;;3.55;2.22;;;19.50;99.90;;;;;;5012559;28;20487;-87
2022/10/23 08:17:46;;;;;;;6.80;2.25;;;19.50;99.90;;;;;;5011197;28;20514;-87
2022/10/23 08:20:13;;;;;;;6.25;2.35;;;19.50;99.90;;;;;;5011120;28;20552;-86
2022/10/23 08:22:39;;;;;;;6.18;2.45;;;19.50;99.90;;;;;;5027690;28;20026;-87
2022/10/23 08:25:05;;;;;;;7.65;2.80;;;19.60;99.90;;;;;;5011085;28;20038;-87
2022/10/23 08:27:30;;;;;;;8.38;2.92;;;19.70;99.90;;;;;;5011355;28;20025;-86
2022/10/23 08:29:56;;;;;;;7.25;2.70;;;19.70;99.90;;;;;;5012023;28;20029;-87
2022/10/23 08:32:22;;;;;;;7.75;3.10;;;19.80;99.90;;;;;;5010749;28;20026;-87
2022/10/23 08:34:47;;;;;;;6.97;2.15;;;19.80;99.90;;;;;;5011196;28;20025;-87
2022/10/23 08:37:13;;;;;;;7.78;3.20;;;19.80;99.90;;;;;;5012322;28;20511;-87
2022/10/23 08:39:39;;;;;;;7.95;2.90;;;19.90;99.90;;;;;;5010909;28;20034;-86
2022/10/23 08:42:05;;;;;;;8.55;2.92;;;20.00;99.90;;;;;;5010775;28;20022;-87
2022/10/23 08:44:44;;;;;;;6.32;2.80;;;20.10;99.90;;;;;;5013380;28;20026;-87
2022/10/23 08:47:23;;;;;;;10.63;3.90;;;20.10;99.90;;;;;;5018925;28;20030;-87
2022/10/23 08:49:54;;;;;;;5.13;2.25;;;20.20;99.90;;;;;;5033616;28;20026;-87
2022/10/23 08:52:23;;;;;;;4.97;2.47;;;20.30;99.90;;;;;;5018815;28;20026;-87
2022/10/23 08:55:01;;;;;;;8.18;2.45;;;20.30;99.90;;;;;;5018997;28;20084;-87
2022/10/23 08:57:33;;;;;;;7.25;2.80;;;20.30;99.90;;;;;;5019047;28;20053;-87
2022/10/23 09:00:12;;;;;;;4.35;2.13;;;20.40;99.90;;;;;;5017077;28;20036;-87
2022/10/23 09:02:43;;;;;;;5.97;2.67;;;20.50;99.90;;;;;;5017488;28;20026;-86
2022/10/23 09:05:32;;;;;;;5.20;2.42;;;20.50;99.90;;;;;;5017145;28;20040;-87
2022/10/23 09:08:11;;;;;;;4.68;2.90;;;20.50;99.90;;;;;;4997274;28;20038;-87
2022/10/23 09:10:53;;;;;;;6.63;2.75;;;20.50;99.90;;;;;;4998997;28;20026;-87
2022/10/23 09:13:25;;;;;;;5.38;2.88;;;20.60;99.90;;;;;;4999020;28;20034;-87
2022/10/23 09:16:19;;;;;;;5.90;2.60;;;20.70;99.90;;;;;;4998860;28;20034;-87
2022/10/23 09:18:47;;;;;;;9.40;3.00;;;20.90;99.90;;;;;;5013793;28;20022;-87
2022/10/23 09:21:12;;;;;;;8.32;2.80;;;21.00;99.90;;;;;;5013714;28;20056;-87
2022/10/23 09:23:38;;;;;;;14.25;3.10;;;21.10;99.90;;;;;;5014009;28;20026;-87
2022/10/23 09:26:13;;;;;;;6.88;2.88;;;21.20;99.90;;;;;;5013773;28;20074;-88
2022/10/23 09:28:51;;;;;;;4.85;3.25;;;21.40;99.90;;;;;;4999159;28;20022;-87
2022/10/23 09:31:18;;;;;;;8.60;3.15;;;21.50;99.90;;;;;;5020355;28;20026;-88
2022/10/23 09:33:58;;;;;;;8.63;2.90;;;21.60;99.90;;;;;;5017434;28;20058;-88
2022/10/23 09:36:28;;;;;;;5.85;2.92;;;21.60;99.90;;;;;;5018060;28;20025;-88
2022/10/23 09:38:57;;;;;;;8.88;3.65;;;21.70;99.90;;;;;;5018337;28;20084;-88
2022/10/23 09:41:39;;;;;;;8.50;3.53;;;21.80;99.90;;;;;;5018100;28;20018;-88
2022/10/23 09:44:16;;;;;;;7.97;3.15;;;22.00;99.90;;;;;;5018422;28;20105;-88
2022/10/23 09:47:04;;;;;;;9.35;3.53;;;22.20;99.90;;;;;;5018514;28;20098;-88
2022/10/23 09:49:32;;;;;;;9.18;3.42;;;22.30;99.90;;;;;;5008666;28;20034;-87
2022/10/23 09:52:47;;;;;;;7.43;3.00;;;22.50;99.90;;;;;;5018031;28;20026;-88
2022/10/23 09:55:22;;;;;;;8.40;2.97;;;22.80;99.90;;;;;;5015094;28;20508;-89
2022/10/23 09:57:48;;;;;;;5.63;3.25;;;23.10;99.90;;;;;;5014110;28;20025;-89
2022/10/23 10:00:17;;;;;;;6.28;2.90;;;23.20;99.90;;;;;;5013418;28;20477;-88
2022/10/23 10:03:04;;;;;;;9.90;3.05;;;23.50;99.90;;;;;;5015485;28;20118;-89
2022/10/23 10:05:31;;;;;;;7.18;3.03;;;23.90;99.90;;;;;;5013245;28;20053;-88
2022/10/23 10:08:21;;;;;;;9.38;3.33;;;24.00;99.90;;;;;;5015218;28;20053;-89
2022/10/23 10:10:59;;;;;;;11.10;3.22;;;24.20;99.90;;;;;;5014799;28;20022;-90
2022/10/23 10:13:36;;;;;;;7.70;2.67;;;24.30;99.90;;;;;;5013741;28;20498;-90
2022/10/23 10:16:20;;;;;;;5.60;2.65;;;24.40;99.90;;;;;;5014924;28;20037;-90
2022/10/23 10:18:58;;;;;;;6.30;2.78;;;24.70;99.90;;;;;;5013229;28;20022;-89
2022/10/23 10:21:37;;;;;;;8.55;3.00;;;24.70;99.90;;;;;;5014973;28;20026;-89
2022/10/23 10:24:10;;;;;;;6.75;2.50;;;24.90;98.40;;;;;;5015105;28;20022;-89
2022/10/23 10:27:12;;;;;;;9.40;2.67;;;25.10;98.40;;;;;;5014493;28;20038;-90
2022/10/23 10:30:09;;;;;;;8.35;2.80;;;25.40;98.40;;;;;;5013488;28;20503;-90
2022/10/23 10:32:56;;;;;;;7.57;2.72;;;25.80;98.40;;;;;;5009740;28;20041;-90
2022/10/23 10:35:47;;;;;;;10.15;3.30;;;25.90;96.90;;;;;;5014492;28;20068;-90
2022/10/23 10:38:39;;;;;;;5.68;2.35;;;25.80;95.80;;;;;;5014597;28;20046;-90
2022/10/23 10:41:11;;;;;;;6.55;2.75;;;25.50;97.40;;;;;;5014149;28;20076;-89
2022/10/23 10:44:01;;;;;;;4.45;2.05;;;25.50;96.60;;;;;;5014760;28;20101;-90
2022/10/23 10:46:56;;;;;;;5.32;2.60;;;25.30;96.40;;;;;;5013108;28;20026;-90
2022/10/23 10:49:33;;;;;;;5.60;1.92;;;25.10;96.70;;;;;;5009771;28;20573;-89
2022/10/23 10:52:45;;;;;;;4.78;2.08;;;25.10;95.50;;;;;;4994683;28;20042;-90
2022/10/23 10:55:37;;;;;;;7.40;2.28;;;25.10;95.60;;;;;;4994814;28;20023;-90
2022/10/23 10:58:10;;;;;;;8.48;2.03;;;25.20;95.20;;;;;;4994650;28;20113;-89
2022/10/23 11:00:35;;;;;;;9.13;2.40;;;25.40;95.00;;;;;;4993101;28;20068;-89
2022/10/23 11:03:44;;;;;;;8.25;1.83;;;25.80;93.50;;;;;;5009075;28;20058;-90
2022/10/23 11:06:15;;;;;;;4.82;1.30;;;26.90;83.50;;;;;;5015638;28;20076;-90
2022/10/23 11:08:41;;;;;;;7.97;1.25;;;27.10;80.40;;;;;;5012597;28;20085;-90
2022/10/23 11:11:12;;;;;;;4.35;0.95;;;27.00;79.40;;;;;;5013713;28;20030;-91
2022/10/23 11:13:41;;;;;;;3.30;1.02;;;26.70;80.90;;;;;;5014226;28;20030;-91
2022/10/23 11:16:16;;;;;;;3.63;0.90;;;26.60;82.50;;;;;;5013333;28;20109;-91
2022/10/23 11:18:45;;;;;;;4.32;0.95;;;26.50;82.30;;;;;;5012655;28;20060;-90
2022/10/23 11:21:20;;;;;;;3.88;1.63;;;26.50;81.90;;;;;;5012218;28;20056;-91
2022/10/23 11:24:13;;;;;;;4.60;1.05;;;27.00;81.30;;;;;;5012554;28;20034;-90
2022/10/23 11:27:19;;;;;;;4.78;1.65;;;27.10;80.10;;;;;;5012293;28;20065;-90
2022/10/23 11:29:55;;;;;;;4.32;1.10;;;27.40;80.10;;;;;;5012266;28;20029;-90
2022/10/23 11:32:40;;;;;;;2.42;1.10;;;27.50;78.30;;;;;;5013110;28;20030;-90
2022/10/23 11:35:30;;;;;;;5.00;0.90;;;27.70;77.80;;;;;;5013661;28;20040;-90
2022/10/23 11:38:22;;;;;;;3.47;0.95;;;27.70;78.60;;;;;;5013555;28;20026;-90
2022/10/23 11:41:00;;;;;;;3.70;1.23;;;27.80;77.80;;;;;;5013687;28;20064;-90
2022/10/23 11:43:35;;;;;;;7.30;1.00;;;27.80;76.00;;;;;;5013361;28;20029;-90
2022/10/23 11:46:34;;;;;;;4.38;1.10;;;27.60;77.50;;;;;;5013230;28;20026;-90
2022/10/23 11:49:02;;;;;;;2.00;0.95;;;27.60;78.40;;;;;;5001191;28;20030;-89
2022/10/23 11:51:32;;;;;;;3.83;1.05;;;28.10;77.30;;;;;;5012944;28;20541;-89
2022/10/23 11:54:14;;;;;;;2.53;0.90;;;27.90;77.00;;;;;;5012137;28;20488;-90
2022/10/23 11:57:05;;;;;;;4.47;1.27;;;27.70;77.80;;;;;;5011796;28;20040;-89
2022/10/23 11:59:34;;;;;;;2.97;0.98;;;27.40;77.40;;;;;;5011544;28;20092;-89
2022/10/23 12:02:27;;;;;;;5.20;1.15;;;27.10;77.30;;;;;;5012858;28;20018;-90
2022/10/23 12:04:54;;;;;;;6.55;1.70;;;27.00;77.50;;;;;;5006038;28;20476;-90
2022/10/23 12:07:30;;;;;;;1.70;0.88;;;26.90;78.40;;;;;;5012912;28;20079;-89
2022/10/23 12:10:03;;;;;;;7.88;1.20;;;26.70;77.40;;;;;;5028409;28;20045;-90
2022/10/23 12:12:34;;;;;;;4.25;1.00;;;26.60;77.40;;;;;;5012697;28;20033;-90
2022/10/23 12:15:08;;;;;;;3.28;1.75;;;26.60;77.50;;;;;;5012484;28;20025;-89
2022/10/23 12:17:38;;;;;;;4.57;1.10;;;26.60;76.60;;;;;;5011646;28;20033;-90
2022/10/23 12:20:07;;;;;;;4.77;1.10;;;26.40;77.20;;;;;;5012615;28;20065;-89
2022/10/23 12:22:59;;;;;;;3.28;0.90;;;26.50;76.80;;;;;;5012648;28;20057;-90
2022/10/23 12:25:35;;;;;;;7.07;1.27;;;26.30;78.40;;;;;;5005908;28;20046;-90
2022/10/23 12:28:11;;;;;;;5.25;2.08;;;26.30;77.70;;;;;;5012774;28;20033;-90
2022/10/23 12:30:56;;;;;;;5.25;1.08;;;26.20;77.50;;;;;;5010983;28;20041;-90
2022/10/23 12:33:24;;;;;;;5.35;1.50;;;26.10;78.70;;;;;;5027715;28;20041;-90
2022/10/23 12:35:50;;;;;;;6.78;1.75;;;26.20;77.70;;;;;;5011541;28;20120;-90
2022/10/23 12:38:25;;;;;;;5.35;1.55;;;26.20;77.20;;;;;;5011047;28;20646;-90
2022/10/23 12:40:55;;;;;;;4.28;1.27;;;26.20;77.30;;;;;;5012290;28;20026;-89
2022/10/23 12:43:27;;;;;;;4.55;1.33;;;26.20;76.80;;;;;;5027470;28;20044;-90
2022/10/23 12:45:55;;;;;;;5.30;1.10;;;26.20;76.80;;;;;;5011217;28;20117;-91
2022/10/23 12:48:23;;;;;;;3.03;0.98;;;26.10;77.00;;;;;;5011196;28;20029;-90
2022/10/23 12:50:51;;;;;;;4.53;1.00;;;26.00;77.70;;;;;;5011023;28;20496;-90
2022/10/23 12:53:18;;;;;;;4.38;1.20;;;26.00;77.70;;;;;;5010943;28;20060;-90
2022/10/23 12:55:56;;;;;;;4.50;1.10;;;26.10;78.30;;;;;;5012720;28;20091;-90
2022/10/23 12:58:31;;;;;;;3.17;1.05;;;26.10;77.00;;;;;;5012384;28;20510;-90
2022/10/23 13:00:59;;;;;;;5.60;1.95;;;26.10;75.90;;;;;;5011195;28;20625;-90
2022/10/23 13:03:27;;;;;;;7.15;1.30;;;26.20;77.10;;;;;;5012484;28;20026;-90
2022/10/23 13:05:57;;;;;;;5.70;1.17;;;26.00;77.00;;;;;;5012341;28;20111;-90
2022/10/23 13:08:28;;;;;;;7.35;1.92;;;26.10;77.00;;;;;;5027263;28;20022;-90
2022/10/23 13:10:54;;;;;;;3.47;1.17;;;26.00;75.90;;;;;;5012391;28;20026;-90
2022/10/23 13:13:22;;;;;;;1.50;0.70;;;26.00;76.50;;;;;;5011104;28;20030;-91